createdAt,value
2019-04-16T00:02:51.395Z,11.03
2019-04-16T00:05:22.214Z,6.05
2019-04-16T00:07:59.773Z,5.33
2019-04-16T00:10:37.337Z,3.98
2019-04-16T00:13:11.865Z,5.22
2019-04-16T00:15:41.323Z,4.25
2019-04-16T00:18:09.934Z,5.75
2019-04-16T00:20:42.974Z,5.55
2019-04-16T00:23:16.141Z,8.40
2019-04-16T00:25:45.049Z,3.37
2019-04-16T00:28:14.018Z,5.03
2019-04-16T00:30:42.971Z,8.48
2019-04-16T00:33:11.947Z,5.28
2019-04-16T00:35:40.893Z,5.37
2019-04-16T00:38:10.071Z,4.47
2019-04-16T00:40:39.539Z,5.25
2019-04-16T00:43:08.625Z,5.10
2019-04-16T00:45:37.578Z,6.55
2019-04-16T00:48:06.511Z,2.83
2019-04-16T00:50:35.763Z,5.45
2019-04-16T00:53:07.820Z,4.28
2019-04-16T00:55:34.533Z,6.28
2019-04-16T00:58:03.421Z,8.10
2019-04-16T01:00:32.305Z,7.03
2019-04-16T01:03:01.064Z,5.47
2019-04-16T01:05:30.161Z,4.55
2019-04-16T01:07:59.249Z,6.95
2019-04-16T01:10:28.054Z,4.58
2019-04-16T01:12:56.961Z,7.00
2019-04-16T01:15:25.897Z,4.55
2019-04-16T01:17:54.789Z,6.72
2019-04-16T01:20:24.169Z,4.10
2019-04-16T01:22:53.489Z,3.67
2019-04-16T01:25:23.251Z,5.28
2019-04-16T01:27:59.797Z,4.72
2019-04-16T01:30:29.161Z,5.50
2019-04-16T01:33:02.916Z,6.60
2019-04-16T01:35:48.205Z,4.00
2019-04-16T01:38:34.560Z,5.12
2019-04-16T01:41:06.141Z,4.62
2019-04-16T01:43:35.419Z,5.35
2019-04-16T01:46:05.105Z,4.70
2019-04-16T01:48:38.713Z,3.35
2019-04-16T01:51:02.988Z,5.35
2019-04-16T01:53:31.701Z,6.72
2019-04-16T01:56:00.583Z,4.65
2019-04-16T01:58:33.497Z,7.40
2019-04-16T02:00:58.250Z,7.17
2019-04-16T02:03:28.176Z,4.33
2019-04-16T02:05:56.960Z,4.83
2019-04-16T02:08:28.345Z,4.42
2019-04-16T02:10:55.041Z,5.62
2019-04-16T02:13:24.172Z,6.83
2019-04-16T02:15:53.394Z,5.85
2019-04-16T02:18:22.088Z,8.03
2019-04-16T02:20:50.872Z,5.92
2019-04-16T02:23:19.780Z,5.37
2019-04-16T02:25:51.380Z,5.20
2019-04-16T02:28:17.764Z,6.87
2019-04-16T02:30:46.605Z,4.97
2019-04-16T02:33:15.544Z,5.03
2019-04-16T02:35:44.362Z,6.15
2019-04-16T02:38:14.216Z,5.17
2019-04-16T02:40:42.377Z,4.92
2019-04-16T02:43:11.259Z,2.70
2019-04-16T02:45:40.033Z,8.10
2019-04-16T02:48:15.254Z,3.85
2019-04-16T02:50:42.753Z,7.90
2019-04-16T02:53:16.960Z,6.70
2019-04-16T02:55:50.817Z,5.50
2019-04-16T02:58:24.105Z,11.88
2019-04-16T03:01:05.890Z,5.30
2019-04-16T03:03:39.008Z,4.28
2019-04-16T03:06:08.920Z,5.65
2019-04-16T03:08:37.848Z,4.75
2019-04-16T03:11:06.804Z,4.62
2019-04-16T03:13:35.709Z,5.97
2019-04-16T03:16:22.220Z,5.70
2019-04-16T03:18:55.140Z,6.37
2019-04-16T03:21:24.492Z,6.53
2019-04-16T03:23:53.180Z,6.00
2019-04-16T03:26:21.951Z,8.30
2019-04-16T03:28:50.908Z,4.95
2019-04-16T03:31:23.254Z,5.15
2019-04-16T03:33:50.877Z,7.83
2019-04-16T03:36:17.940Z,3.95
2019-04-16T03:38:46.794Z,7.33
2019-04-16T03:41:16.015Z,5.87
2019-04-16T03:43:44.855Z,4.00
2019-04-16T03:46:14.176Z,6.92
2019-04-16T03:48:42.420Z,8.88
2019-04-16T03:51:11.214Z,6.70
2019-04-16T03:53:39.996Z,7.60
2019-04-16T03:56:08.834Z,7.55
2019-04-16T03:58:38.544Z,7.53
2019-04-16T04:01:08.640Z,4.65
2019-04-16T04:03:37.733Z,4.00
2019-04-16T04:06:07.878Z,7.65
2019-04-16T04:08:35.335Z,5.53
2019-04-16T04:11:09.172Z,4.22
2019-04-16T04:13:34.273Z,4.42
2019-04-16T04:16:03.096Z,8.23
2019-04-16T04:18:32.271Z,5.42
2019-04-16T04:21:01.020Z,7.67
2019-04-16T04:23:29.792Z,4.90
2019-04-16T04:25:58.555Z,8.20
2019-04-16T04:28:27.300Z,5.17
2019-04-16T04:30:57.712Z,5.40
2019-04-16T04:33:30.435Z,7.50
2019-04-16T04:35:59.180Z,6.50
2019-04-16T04:38:28.082Z,5.00
2019-04-16T04:40:59.715Z,4.03
2019-04-16T04:43:25.727Z,5.00
2019-04-16T04:45:54.535Z,6.72
2019-04-16T04:48:24.294Z,3.72
2019-04-16T04:50:52.191Z,7.42
2019-04-16T04:53:20.925Z,6.33
2019-04-16T04:55:49.739Z,7.27
2019-04-16T04:58:18.671Z,6.65
2019-04-16T05:00:47.500Z,6.33
2019-04-16T05:03:20.439Z,6.20
2019-04-16T05:05:53.380Z,4.58
2019-04-16T05:08:21.663Z,6.03
2019-04-16T05:10:58.904Z,4.97
2019-04-16T05:13:23.893Z,4.95
2019-04-16T05:15:48.219Z,5.20
2019-04-16T05:18:17.227Z,7.67
2019-04-16T05:20:47.022Z,6.47
2019-04-16T05:23:14.617Z,7.45
2019-04-16T05:25:43.315Z,5.95
2019-04-16T05:28:13.311Z,6.30
2019-04-16T05:30:41.186Z,5.35
2019-04-16T05:33:11.420Z,7.03
2019-04-16T05:35:41.338Z,9.38
2019-04-16T05:38:09.006Z,6.58
2019-04-16T05:40:37.795Z,6.53
2019-04-16T05:43:06.547Z,4.72
2019-04-16T05:45:37.636Z,4.25
2019-04-16T05:48:05.079Z,7.35
2019-04-16T05:50:34.061Z,8.83
2019-04-16T05:53:05.479Z,3.72
2019-04-16T05:55:37.463Z,6.00
2019-04-16T05:58:06.258Z,6.65
2019-04-16T06:00:43.344Z,5.50
2019-04-16T06:03:12.602Z,5.08
2019-04-16T06:05:41.322Z,5.03
2019-04-16T06:08:12.170Z,5.55
2019-04-16T06:10:41.124Z,6.60
2019-04-16T06:13:15.318Z,4.60
2019-04-16T06:15:53.002Z,5.42
2019-04-16T06:20:28.166Z,10.20
2019-04-16T06:23:08.615Z,6.20
2019-04-16T06:25:44.622Z,4.12
2019-04-16T06:28:20.379Z,6.25
2019-04-16T06:31:54.586Z,10.78
2019-04-16T06:34:31.415Z,6.60
2019-04-16T06:37:05.167Z,5.67
2019-04-16T06:39:45.326Z,10.05
2019-04-16T06:42:22.505Z,7.50
2019-04-16T06:44:51.470Z,6.87
2019-04-16T06:47:31.544Z,11.45
2019-04-16T06:50:07.299Z,8.68
2019-04-16T06:52:41.146Z,5.50
2019-04-16T06:55:15.026Z,8.23
2019-04-16T06:57:48.910Z,6.85
2019-04-16T07:00:26.212Z,6.63
2019-04-16T07:04:06.769Z,4.05
2019-04-16T07:06:38.966Z,5.45
2019-04-16T07:09:12.942Z,6.47
2019-04-16T07:11:53.873Z,4.67
2019-04-16T07:14:15.694Z,5.55
2019-04-16T07:16:42.894Z,4.35
2019-04-16T07:19:12.218Z,2.55
2019-04-16T07:21:41.618Z,3.00
2019-04-16T07:24:10.479Z,3.63
2019-04-16T07:26:40.005Z,3.92
2019-04-16T07:29:13.281Z,5.83
2019-04-16T07:33:48.874Z,3.65
2019-04-16T07:36:27.268Z,4.58
2019-04-16T07:39:05.265Z,7.45
2019-04-16T07:42:51.224Z,4.47
2019-04-16T07:45:30.449Z,5.15
2019-04-16T07:48:06.495Z,4.75
2019-04-16T07:50:53.299Z,4.10
2019-04-16T07:53:27.242Z,4.37
2019-04-16T07:55:59.102Z,4.67
2019-04-16T07:58:27.825Z,6.45
2019-04-16T08:00:56.673Z,4.58
2019-04-16T08:03:26.708Z,5.05
2019-04-16T08:05:54.293Z,4.95
2019-04-16T08:08:24.726Z,2.13
2019-04-16T08:10:52.129Z,2.22
2019-04-16T08:13:20.910Z,5.72
2019-04-16T08:15:49.714Z,4.35
2019-04-16T08:18:18.497Z,3.85
2019-04-16T08:21:00.283Z,3.10
2019-04-16T08:23:21.702Z,4.87
2019-04-16T08:25:58.681Z,4.33
2019-04-16T08:28:19.874Z,3.22
2019-04-16T08:30:48.589Z,5.10
2019-04-16T08:33:17.797Z,8.37
2019-04-16T08:35:46.597Z,4.62
2019-04-16T08:38:15.429Z,3.47
2019-04-16T08:40:46.349Z,5.28
2019-04-16T08:43:13.097Z,2.47
2019-04-16T08:45:42.173Z,4.72
2019-04-16T08:48:16.849Z,3.50
2019-04-16T08:50:40.629Z,3.27
2019-04-16T08:53:13.281Z,4.25
2019-04-16T08:55:38.202Z,4.10
2019-04-16T08:58:07.609Z,6.50
2019-04-16T09:00:36.081Z,3.70
2019-04-16T09:03:04.757Z,5.67
2019-04-16T09:05:33.312Z,7.60
2019-04-16T09:08:12.892Z,3.67
2019-04-16T09:10:35.669Z,2.98
2019-04-16T09:13:06.831Z,4.70
2019-04-16T09:15:35.897Z,4.80
2019-04-16T09:18:10.557Z,2.87
2019-04-16T09:20:40.900Z,3.98
2019-04-16T09:23:09.732Z,6.50
2019-04-16T09:25:46.064Z,5.75
2019-04-16T09:28:25.255Z,5.22
2019-04-16T09:30:51.466Z,4.62
2019-04-16T09:33:24.549Z,7.65
2019-04-16T09:36:01.124Z,3.45
2019-04-16T09:38:38.782Z,4.35
2019-04-16T09:41:12.871Z,2.60
2019-04-16T09:43:44.948Z,3.42
2019-04-16T09:46:21.612Z,3.10
2019-04-16T09:48:42.217Z,2.98
2019-04-16T09:51:10.867Z,4.65
2019-04-16T09:53:40.263Z,4.00
2019-04-16T09:56:38.846Z,3.52
2019-04-16T09:59:16.113Z,6.58
2019-04-16T10:01:47.230Z,3.33
2019-04-16T10:04:18.156Z,3.87
2019-04-16T10:06:46.771Z,2.20
2019-04-16T10:09:20.051Z,3.33
2019-04-16T10:11:45.075Z,2.80
2019-04-16T10:14:13.783Z,4.03
2019-04-16T10:16:42.375Z,3.15
2019-04-16T10:19:10.967Z,4.42
2019-04-16T10:21:39.653Z,2.58
2019-04-16T10:24:14.099Z,4.33
2019-04-16T10:26:42.755Z,3.83
2019-04-16T10:29:14.589Z,4.28
2019-04-16T10:31:43.194Z,5.97
2019-04-16T10:34:11.806Z,4.03
2019-04-16T10:36:40.659Z,4.08
2019-04-16T10:39:15.334Z,2.22
2019-04-16T10:41:50.961Z,4.28
2019-04-16T10:44:24.646Z,2.80
2019-04-16T10:46:58.586Z,2.45
2019-04-16T10:50:30.580Z,1.82
2019-04-16T10:53:09.202Z,2.40
2019-04-16T10:55:43.312Z,12.25
2019-04-16T10:58:17.836Z,3.52
2019-04-16T11:01:06.985Z,3.25
2019-04-16T11:03:41.411Z,2.58
2019-04-16T11:06:16.525Z,4.72
2019-04-16T11:08:45.843Z,4.58
2019-04-16T11:11:14.824Z,4.83
2019-04-16T11:13:59.279Z,2.92
2019-04-16T11:16:17.120Z,3.07
2019-04-16T11:18:46.315Z,5.78
2019-04-16T11:21:17.061Z,2.35
2019-04-16T11:23:48.223Z,1.98
2019-04-16T11:26:17.595Z,2.83
2019-04-16T11:28:47.225Z,5.12
2019-04-16T11:31:18.102Z,5.17
2019-04-16T11:33:49.085Z,4.30
2019-04-16T11:36:20.997Z,7.25
2019-04-16T11:38:52.082Z,3.02
2019-04-16T11:41:21.504Z,3.00
2019-04-16T11:43:52.686Z,4.00
2019-04-16T11:46:28.404Z,5.30
2019-04-16T11:48:58.403Z,3.35
2019-04-16T11:51:28.227Z,4.25
2019-04-16T11:53:58.271Z,3.47
2019-04-16T11:56:27.265Z,4.17
2019-04-16T11:59:02.690Z,7.15
2019-04-16T12:01:38.491Z,4.57
2019-04-16T12:04:17.010Z,4.80
2019-04-16T12:07:16.014Z,6.00
2019-04-16T12:09:51.245Z,5.58
2019-04-16T12:12:25.639Z,5.60
2019-04-16T12:17:03.615Z,5.87
2019-04-16T12:19:39.809Z,5.85
2019-04-16T12:22:38.712Z,5.60
2019-04-16T12:25:43.356Z,8.68
2019-04-16T12:28:19.863Z,6.28
2019-04-16T12:32:03.579Z,8.38
2019-04-16T12:34:34.605Z,4.30
2019-04-16T12:37:10.889Z,6.33
2019-04-16T12:39:45.383Z,6.58
2019-04-16T12:42:23.179Z,4.28
2019-04-16T12:44:57.858Z,6.30
2019-04-16T12:47:43.935Z,5.67
2019-04-16T12:50:20.035Z,4.15
2019-04-16T12:52:56.208Z,4.72
2019-04-16T12:55:35.435Z,5.60
2019-04-16T12:58:11.249Z,7.10
2019-04-16T13:01:03.057Z,5.50
2019-04-16T13:03:46.313Z,5.30
2019-04-16T13:06:20.666Z,5.45
2019-04-16T13:08:56.011Z,8.23
2019-04-16T13:11:31.891Z,6.50
2019-04-16T13:14:08.361Z,6.00
2019-04-16T13:16:56.625Z,5.60
2019-04-16T13:19:34.770Z,6.55
2019-04-16T13:22:06.174Z,4.12
2019-04-16T13:24:41.650Z,5.45
2019-04-16T13:27:18.316Z,8.30
2019-04-16T13:29:48.124Z,4.97
2019-04-16T13:32:17.628Z,8.60
2019-04-16T13:34:47.024Z,7.78
2019-04-16T13:37:17.728Z,6.87
2019-04-16T13:39:52.514Z,8.63
2019-04-16T13:42:21.637Z,5.97
2019-04-16T13:44:57.193Z,5.40
2019-04-16T13:47:26.266Z,6.37
2019-04-16T13:50:08.603Z,6.28
2019-04-16T13:58:50.226Z,6.53
2019-04-16T14:20:12.805Z,4.20
2019-04-16T14:27:13.817Z,5.45
2019-04-16T14:29:42.539Z,6.00
2019-04-16T14:32:13.466Z,6.70
2019-04-16T14:38:12.852Z,4.85
2019-04-16T14:47:11.134Z,8.40
2019-04-16T14:49:40.551Z,8.10
2019-04-16T15:33:51.955Z,6.47
2019-04-16T15:36:24.474Z,5.30
2019-04-16T15:39:03.006Z,5.80
2019-04-16T15:41:48.950Z,8.15
2019-04-16T15:44:31.890Z,5.53
2019-04-16T15:47:06.190Z,7.87
2019-04-16T15:49:39.350Z,10.75
2019-04-16T15:52:13.403Z,4.35
2019-04-16T15:54:49.591Z,5.00
2019-04-16T17:47:30.755Z,9.05
2019-04-16T17:50:03.730Z,10.10
2019-04-16T17:52:35.589Z,10.98
2019-04-16T17:55:09.376Z,15.98
2019-04-16T17:57:47.911Z,9.83
2019-04-16T18:00:40.485Z,8.25
2019-04-16T18:03:16.183Z,14.45
2019-04-16T18:07:53.243Z,12.73
2019-04-16T19:27:07.866Z,14.78
2019-04-16T19:29:37.215Z,12.68
2019-04-16T19:32:06.298Z,13.13
2019-04-16T19:34:35.418Z,12.88
2019-04-16T19:37:05.262Z,17.62
2019-04-16T19:39:34.334Z,16.67
2019-04-16T19:42:03.396Z,13.10
2019-04-16T19:44:33.627Z,13.43
2019-04-16T19:47:01.256Z,13.43
2019-04-16T19:52:24.046Z,13.53
2019-04-16T19:54:54.221Z,17.12
2019-04-16T19:57:55.992Z,12.85
2019-04-16T20:00:23.538Z,8.58
2019-04-16T20:49:35.264Z,13.13
2019-04-16T20:59:23.787Z,15.20
2019-04-16T21:25:49.095Z,10.65
2019-04-16T21:28:28.420Z,12.00
2019-04-16T21:31:04.164Z,13.62
2019-04-16T21:33:49.241Z,11.08
2019-04-16T21:36:22.235Z,10.68
2019-04-16T21:39:03.003Z,10.85
2019-04-16T21:41:29.700Z,11.25
2019-04-16T21:44:01.039Z,10.58
2019-04-16T21:46:31.243Z,16.57
2019-04-16T21:49:02.551Z,13.28
2019-04-16T21:51:32.846Z,9.80
2019-04-16T21:54:02.116Z,13.03
2019-04-16T21:56:32.123Z,13.48
2019-04-16T21:59:04.728Z,15.70
2019-04-16T22:01:36.003Z,10.85
2019-04-16T22:04:14.456Z,12.90
2019-04-16T22:06:41.239Z,14.25
2019-04-16T22:09:11.787Z,11.93
2019-04-16T22:11:44.526Z,17.65
2019-04-16T22:14:13.743Z,15.13
2019-04-16T22:16:44.787Z,13.22
2019-04-16T22:21:53.210Z,14.87
2019-04-16T22:24:24.395Z,20.77
2019-04-16T22:26:57.747Z,14.28
2019-04-16T22:29:35.317Z,14.07
2019-04-16T22:32:05.554Z,14.87
2019-04-16T22:34:38.247Z,17.52
2019-04-16T22:37:08.563Z,15.65
2019-04-16T22:39:50.886Z,15.90
2019-04-16T22:42:22.426Z,17.40
2019-04-16T22:44:59.519Z,15.85
2019-04-16T22:47:33.347Z,12.07
2019-04-16T22:50:15.183Z,18.92
2019-04-16T22:52:34.318Z,17.82
2019-04-16T22:55:04.142Z,14.78
2019-04-16T22:57:34.311Z,12.40
2019-04-16T23:00:04.489Z,11.43
2019-04-16T23:02:36.322Z,17.52
2019-04-16T23:05:09.727Z,13.08
2019-04-16T23:07:40.796Z,14.23
2019-04-16T23:10:10.630Z,16.55
2019-04-16T23:12:40.121Z,11.18
2019-04-16T23:15:10.226Z,10.58
2019-04-16T23:17:39.401Z,8.90
2019-04-16T23:20:08.593Z,12.63
2019-04-16T23:22:37.746Z,14.55
2019-04-16T23:25:08.318Z,14.60
2019-04-16T23:27:38.275Z,11.68
2019-04-16T23:30:09.350Z,12.18
2019-04-16T23:32:38.570Z,11.20
2019-04-16T23:35:10.783Z,12.50
2019-04-16T23:37:39.420Z,11.90
2019-04-16T23:40:10.846Z,8.70
2019-04-16T23:42:38.918Z,7.97
2019-04-16T23:45:12.954Z,9.60
2019-04-16T23:48:15.522Z,11.97
2019-04-16T23:50:52.266Z,8.75
2019-04-16T23:53:29.550Z,8.50
2019-04-16T23:56:25.394Z,8.13
2019-04-16T23:59:04.244Z,7.15
